Time;durP1;ratioP1;P1;durP2;ratioP2;P2;SDS_P1;SDS_P2;PMS_P1;PMS_P2;Temp;Humidity;BMP_temperature;BMP_pressure;BME280_temperature;BME280_humidity;BME280_pressure;Samples;Min_cycle;Max_cycle;Signal;HPM_P1;HPM_P2
2022/10/16 00:00:42;;;;;;;10.45;8.03;;;;;;;11.49;87.81;100143.42;2175721;80;21034;-72
2022/10/16 00:03:45;;;;;;;12.03;7.65;;;;;;;11.48;87.85;100154.22;2175577;80;21028;-72
2022/10/16 00:06:45;;;;;;;11.00;7.72;;;;;;;11.45;87.78;100164.68;2170969;80;21048;-73
2022/10/16 00:09:47;;;;;;;9.63;7.45;;;;;;;11.41;87.81;100157.56;2164764;80;20989;-72
2022/10/16 00:12:48;;;;;;;8.40;6.85;;;;;;;11.40;87.98;100157.72;2169104;80;21463;-77
2022/10/16 00:15:50;;;;;;;9.35;7.37;;;;;;;11.39;87.99;100157.40;2169994;80;21058;-74
2022/10/16 00:18:51;;;;;;;11.50;7.37;;;;;;;11.38;88.03;100160.56;2174127;80;21012;-72
2022/10/16 00:21:52;;;;;;;10.25;7.97;;;;;;;11.37;88.11;100158.89;2178891;80;21117;-72
2022/10/16 00:24:53;;;;;;;9.68;7.70;;;;;;;11.35;88.16;100154.27;2179935;80;21028;-72
2022/10/16 00:27:54;;;;;;;11.12;7.50;;;;;;;11.35;88.26;100162.23;2176694;80;21047;-72
2022/10/16 00:30:56;;;;;;;8.90;7.40;;;;;;;11.36;88.29;100165.72;2176601;80;21059;-71
2022/10/16 00:33:57;;;;;;;11.88;7.83;;;;;;;11.36;88.34;100170.52;2178259;80;20965;-72
2022/10/16 00:36:58;;;;;;;12.70;7.95;;;;;;;11.35;88.41;100168.88;2179840;80;21010;-79
2022/10/16 00:39:59;;;;;;;16.52;7.75;;;;;;;11.35;88.56;100159.58;2177173;80;21537;-75
2022/10/16 00:43:00;;;;;;;9.38;7.35;;;;;;;11.36;88.58;100169.70;2170454;80;21049;-72
2022/10/16 00:46:05;;;;;;;11.45;6.67;;;;;;;11.38;88.63;100170.36;2162442;80;20995;-72
2022/10/16 00:49:14;;;;;;;9.48;6.78;;;;;;;11.40;88.72;100176.31;2167661;80;20997;-72
2022/10/16 00:52:15;;;;;;;8.23;6.85;;;;;;;11.40;88.64;100174.52;2155200;80;21011;-72
2022/10/16 00:55:16;;;;;;;10.10;6.83;;;;;;;11.43;88.75;100166.67;2178521;80;21022;-72
2022/10/16 00:58:18;;;;;;;11.48;7.17;;;;;;;11.44;88.76;100163.86;2167419;80;21055;-72
2022/10/16 01:01:19;;;;;;;12.33;6.28;;;;;;;11.46;88.76;100158.39;2165142;80;21048;-72
2022/10/16 01:04:20;;;;;;;9.15;6.25;;;;;;;11.45;88.73;100157.53;2165983;80;20982;-74
2022/10/16 01:07:45;;;;;;;10.25;6.22;;;;;;;11.44;88.67;100157.22;2163377;80;21048;-72
2022/10/16 01:11:08;;;;;;;6.42;5.47;;;;;;;11.43;88.62;100161.36;2158495;80;21001;-77
2022/10/16 01:14:21;;;;;;;7.47;5.78;;;;;;;11.42;88.64;100159.72;2165386;80;21103;-73
2022/10/16 01:17:44;;;;;;;7.30;5.47;;;;;;;11.39;88.69;100157.40;2142093;80;21598;-72
2022/10/16 01:21:12;;;;;;;6.10;5.50;;;;;;;11.38;88.76;100160.56;2156663;80;21127;-71
2022/10/16 01:24:25;;;;;;;7.17;5.78;;;;;;;11.37;88.78;100164.70;2162988;80;21094;-72
2022/10/16 01:27:30;;;;;;;11.95;7.28;;;;;;;11.34;89.02;100167.70;2155334;80;20993;-74
2022/10/16 01:30:34;;;;;;;7.22;6.17;;;;;;;11.36;89.10;100161.73;2167420;80;21026;-71
2022/10/16 01:33:40;;;;;;;11.83;6.87;;;;;;;11.39;89.29;100160.05;2155482;80;21552;-73
2022/10/16 01:36:51;;;;;;;8.10;6.30;;;;;;;11.42;89.48;100156.55;2165789;80;21033;-74
2022/10/16 01:39:57;;;;;;;7.22;5.58;;;;;;;11.47;89.74;100158.70;2166472;80;20993;-72
2022/10/16 01:43:24;;;;;;;7.80;5.65;;;;;;;11.51;89.73;100161.84;2165227;80;21027;-73
2022/10/16 01:46:26;;;;;;;20.88;11.97;;;;;;;11.53;89.54;100163.33;2159313;80;21068;-74
2022/10/16 01:49:32;;;;;;;9.48;6.75;;;;;;;11.56;89.41;100169.63;2125609;82;20983;-72
2022/10/16 01:52:38;;;;;;;5.97;5.37;;;;;;;11.58;89.56;100158.33;2173324;80;21041;-72
2022/10/16 01:55:44;;;;;;;7.42;5.33;;;;;;;11.61;89.54;100157.98;2167395;80;21108;-72
2022/10/16 01:58:53;;;;;;;15.00;5.87;;;;;;;11.61;89.57;100154.00;2159145;80;21115;-74
2022/10/16 02:02:01;;;;;;;7.65;5.62;;;;;;;11.62;89.53;100168.11;2159554;80;21006;-72
2022/10/16 02:05:25;;;;;;;10.20;5.90;;;;;;;11.63;89.62;100165.80;2168885;80;21046;-73
2022/10/16 02:08:29;;;;;;;6.37;5.58;;;;;;;11.64;89.63;100162.95;2166332;80;21930;-71
2022/10/16 02:11:30;;;;;;;7.97;4.97;;;;;;;11.67;89.56;100166.59;2119549;82;21588;-71
2022/10/16 02:14:31;;;;;;;10.98;5.58;;;;;;;11.67;89.52;100171.08;2165214;80;21492;-73
2022/10/16 02:17:33;;;;;;;7.85;5.42;;;;;;;11.67;89.46;100175.89;2119689;82;21055;-72
2022/10/16 02:20:54;;;;;;;8.38;5.67;;;;;;;11.69;89.55;100173.58;2171489;80;20997;-71
2022/10/16 02:24:07;;;;;;;;;;;;;;;11.69;89.57;100174.41;2157180;80;21049;-71
2022/10/16 02:27:36;;;;;;;5.80;5.20;;;;;;;11.73;89.68;100174.88;2146603;80;20119;-71
2022/10/16 02:30:47;;;;;;;6.72;5.37;;;;;;;11.72;89.57;100181.21;2165903;80;20989;-79
2022/10/16 02:33:51;;;;;;;5.87;5.10;;;;;;;11.72;89.49;100179.37;2173489;80;20990;-72
2022/10/16 02:36:53;;;;;;;6.15;5.55;;;;;;;11.73;89.46;100189.50;2165848;80;21018;-72
2022/10/16 02:39:57;;;;;;;6.22;5.62;;;;;;;11.73;89.52;100191.66;2165916;80;21034;-72
2022/10/16 02:42:58;;;;;;;9.43;5.92;;;;;;;11.75;89.45;100198.96;2171742;80;21068;-72
2022/10/16 02:46:00;;;;;;;8.30;5.80;;;;;;;11.77;89.43;100201.43;2179249;80;21053;-72
2022/10/16 02:49:01;;;;;;;7.47;5.67;;;;;;;11.78;89.30;100196.46;2179582;80;21023;-72
2022/10/16 02:52:02;;;;;;;8.58;4.75;;;;;;;11.76;89.20;100199.28;2178527;80;21081;-78
2022/10/16 02:55:05;;;;;;;6.85;5.67;;;;;;;11.76;89.27;100194.47;2181068;80;21019;-72
2022/10/16 02:58:06;;;;;;;8.00;5.90;;;;;;;11.78;89.23;100204.44;2181480;80;21533;-72
2022/10/16 03:01:07;;;;;;;7.50;5.58;;;;;;;11.79;89.21;100200.77;2179727;80;21059;-72
2022/10/16 03:04:08;;;;;;;6.97;5.55;;;;;;;11.76;89.07;100197.13;2184368;80;21034;-73
2022/10/16 03:07:11;;;;;;;7.05;5.50;;;;;;;11.76;89.04;100189.97;2175098;80;21874;-72
2022/10/16 03:10:12;;;;;;;8.73;6.15;;;;;;;11.72;88.97;100199.31;2180407;80;20998;-72
2022/10/16 03:13:13;;;;;;;8.50;6.72;;;;;;;11.72;89.02;100204.62;2178399;80;21035;-72
2022/10/16 03:16:14;;;;;;;7.40;6.00;;;;;;;11.73;89.11;100198.80;2174390;80;20975;-71
2022/10/16 03:19:18;;;;;;;10.30;6.35;;;;;;;11.72;89.11;100200.64;2178248;80;21014;-72
2022/10/16 03:22:19;;;;;;;5.83;5.22;;;;;;;11.75;89.21;100204.78;2183676;80;21038;-71
2022/10/16 03:25:20;;;;;;;10.68;6.10;;;;;;;11.75;89.19;100204.78;2194296;80;21050;-71
2022/10/16 03:28:21;;;;;;;8.85;6.87;;;;;;;11.78;89.44;100208.42;2180505;80;21095;-72
2022/10/16 03:31:22;;;;;;;13.13;7.92;;;;;;;11.80;89.45;100219.72;2179195;80;21007;-73
2022/10/16 03:34:24;;;;;;;9.55;7.42;;;;;;;11.82;89.66;100216.37;2178891;80;21556;-72
2022/10/16 03:37:25;;;;;;;10.58;7.45;;;;;;;11.84;89.77;100217.03;2178049;80;21473;-74
2022/10/16 03:40:26;;;;;;;16.07;10.95;;;;;;;11.84;89.89;100215.20;2173168;80;20994;-72
2022/10/16 03:43:27;;;;;;;11.10;7.75;;;;;;;11.87;89.71;100222.03;2179142;80;21065;-74
2022/10/16 03:46:29;;;;;;;11.00;8.43;;;;;;;11.86;89.79;100216.41;2177929;80;21007;-72
2022/10/16 03:49:30;;;;;;;9.23;7.60;;;;;;;11.85;89.71;100214.69;2184408;80;21104;-75
2022/10/16 03:52:31;;;;;;;7.92;7.00;;;;;;;11.85;89.69;100227.98;2183359;80;21022;-72
2022/10/16 03:55:33;;;;;;;11.55;8.05;;;;;;;11.87;89.99;100227.36;2183176;80;21443;-72
2022/10/16 03:58:33;;;;;;;9.95;7.83;;;;;;;11.85;89.98;100234.19;2179786;80;20991;-72
2022/10/16 04:01:34;;;;;;;11.60;7.95;;;;;;;11.84;90.16;100223.68;2180051;80;21026;-72
2022/10/16 04:04:35;;;;;;;15.15;8.63;;;;;;;11.85;90.49;100233.30;2174625;80;21024;-73
2022/10/16 04:07:37;;;;;;;9.80;8.28;;;;;;;11.87;90.55;100230.02;2178544;80;21009;-72
2022/10/16 04:10:38;;;;;;;12.95;9.85;;;;;;;11.87;90.54;100226.84;2181340;80;21014;-72
2022/10/16 04:13:40;;;;;;;13.08;9.35;;;;;;;11.89;90.80;100228.02;2178536;80;21025;-75
2022/10/16 04:16:41;;;;;;;10.32;9.15;;;;;;;11.90;90.59;100232.33;2168794;80;21056;-71
2022/10/16 04:19:42;;;;;;;12.68;9.68;;;;;;;11.90;90.67;100228.34;2178111;80;21047;-72
2022/10/16 04:22:43;;;;;;;10.03;8.88;;;;;;;11.92;90.78;100229.00;2184382;80;21015;-71
2022/10/16 04:25:44;;;;;;;11.28;9.05;;;;;;;11.94;90.78;100235.45;2180389;80;20994;-72
2022/10/16 04:28:45;;;;;;;12.15;9.65;;;;;;;11.95;90.76;100241.13;2174884;80;21508;-72
2022/10/16 04:31:47;;;;;;;13.68;10.15;;;;;;;11.94;90.57;100234.98;2178763;80;20994;-72
2022/10/16 04:34:48;;;;;;;11.55;9.45;;;;;;;11.95;90.50;100240.62;2171555;80;20958;-71
2022/10/16 04:37:50;;;;;;;15.28;11.57;;;;;;;11.94;90.45;100238.97;2179403;80;20944;-72
2022/10/16 04:40:52;;;;;;;14.55;11.22;;;;;;;11.94;90.62;100242.96;2133159;82;21045;-73
2022/10/16 04:43:53;;;;;;;14.58;11.08;;;;;;;11.94;90.72;100245.62;2130384;81;21491;-75
2022/10/16 04:46:54;;;;;;;15.32;11.80;;;;;;;11.93;90.67;100241.28;2099892;83;21256;-72
2022/10/16 04:49:56;;;;;;;13.18;11.00;;;;;;;11.91;90.75;100243.31;2117488;83;20996;-72
2022/10/16 04:52:57;;;;;;;17.05;11.88;;;;;;;11.90;90.59;100253.59;2125371;82;21063;-72
2022/10/16 04:55:58;;;;;;;14.58;12.03;;;;;;;11.89;90.61;100257.27;2105685;82;21105;-73
2022/10/16 04:59:05;;;;;;;17.25;12.03;;;;;;;11.88;90.78;100267.08;2131098;82;20992;-75
2022/10/16 05:02:07;;;;;;;24.70;13.88;;;;;;;11.90;90.74;100265.56;2127057;81;20961;-72
2022/10/16 05:05:08;;;;;;;20.95;13.55;;;;;;;11.91;91.08;100264.58;2129405;81;21085;-72
2022/10/16 05:08:09;;;;;;;20.40;14.47;;;;;;;11.92;91.16;100265.41;2131944;81;21093;-73
2022/10/16 05:11:10;;;;;;;17.55;12.73;;;;;;;11.92;91.17;100264.89;2129741;81;21048;-76
2022/10/16 05:14:11;;;;;;;16.37;13.22;;;;;;;11.94;90.95;100261.58;2128950;81;21026;-73
2022/10/16 05:17:12;;;;;;;17.17;13.08;;;;;;;11.96;91.05;100258.22;2122430;81;21068;-73
2022/10/16 05:20:14;;;;;;;21.30;15.23;;;;;;;11.97;91.17;100269.20;2123337;82;21078;-78
2022/10/16 05:23:17;;;;;;;19.82;14.65;;;;;;;11.99;91.31;100271.67;2100797;82;21059;-73
2022/10/16 05:26:24;;;;;;;38.05;20.70;;;;;;;11.99;91.11;100271.67;2133241;81;21048;-72
2022/10/16 05:29:25;;;;;;;15.68;12.65;;;;;;;11.97;91.25;100263.89;2112261;82;22317;-72
2022/10/16 05:32:39;;;;;;;;;;;;;;;;;;;;;
2022/10/16 05:35:35;;;;;;;18.80;13.13;;;;;;;11.96;91.18;100268.03;2140599;82;21058;-72
2022/10/16 05:38:39;;;;;;;16.80;13.50;;;;;;;11.96;91.18;100271.52;2118478;82;21127;-73
2022/10/16 05:41:54;;;;;;;17.73;13.15;;;;;;;11.97;91.34;100282.50;2107918;83;21102;-72
2022/10/16 05:45:00;;;;;;;17.27;12.90;;;;;;;11.97;91.25;100283.83;2097397;84;21545;-76
2022/10/16 05:48:04;;;;;;;21.60;13.72;;;;;;;11.97;91.19;100285.16;2098877;83;21107;-75
2022/10/16 05:51:13;;;;;;;17.75;13.83;;;;;;;11.99;91.29;100284.97;2130775;82;21004;-74
2022/10/16 05:54:16;;;;;;;19.42;13.48;;;;;;;11.99;91.25;100285.80;2099369;83;21536;-78
2022/10/16 05:57:19;;;;;;;18.90;14.33;;;;;;;12.01;91.36;100274.49;2134874;82;21012;-74
2022/10/16 06:00:20;;;;;;;17.42;14.07;;;;;;;12.03;91.47;100286.30;2098686;84;21050;-75
2022/10/16 06:03:22;;;;;;;19.30;14.65;;;;;;;12.05;91.40;100289.13;2133745;81;21499;-75
2022/10/16 06:06:26;;;;;;;17.73;12.73;;;;;;;12.06;91.34;100281.46;2131111;82;21042;-75
2022/10/16 06:09:32;;;;;;;20.92;14.85;;;;;;;12.10;91.64;100284.09;2131357;82;21041;-75
2022/10/16 06:12:34;;;;;;;17.35;13.30;;;;;;;12.14;91.49;100294.41;2143241;82;21682;-75
2022/10/16 06:15:35;;;;;;;16.87;12.60;;;;;;;12.18;91.44;100295.20;2133716;82;21530;-77
2022/10/16 06:18:44;;;;;;;18.45;12.43;;;;;;;12.25;91.39;100304.17;2134766;82;21066;-73
2022/10/16 06:21:40;;;;;;;13.85;11.57;;;;;;;12.31;91.41;100299.98;2126006;82;21554;-74
2022/10/16 06:24:41;;;;;;;15.85;11.00;;;;;;;12.38;91.36;100323.55;2101450;82;21103;-76
2022/10/16 06:27:44;;;;;;;16.23;11.88;;;;;;;12.44;91.34;100320.19;2126064;82;21008;-76
2022/10/16 06:30:53;;;;;;;13.78;11.33;;;;;;;12.52;91.33;100324.65;2100357;83;21058;-74
2022/10/16 07:05:52;;;;;;;10.75;8.70;;;;;;;13.43;90.50;100357.20;2058064;85;21106;-75
2022/10/16 07:08:53;;;;;;;8.93;8.03;;;;;;;13.54;90.33;100359.10;2048302;86;21034;-75
2022/10/16 07:11:54;;;;;;;9.90;8.63;;;;;;;13.60;90.03;100359.23;2055397;86;21100;-72
2022/10/16 07:14:56;;;;;;;8.35;7.37;;;;;;;13.67;89.92;100359.33;2055325;86;21516;-73
2022/10/16 07:17:57;;;;;;;10.23;7.97;;;;;;;13.71;89.67;100369.94;2055349;86;21068;-75
2022/10/16 07:21:13;;;;;;;13.00;8.23;;;;;;;13.76;89.54;100372.89;2058409;86;21087;-77
2022/10/16 07:24:17;;;;;;;10.90;8.18;;;;;;;13.80;89.37;100380.88;2050782;86;21711;-73
2022/10/16 07:27:18;;;;;;;12.43;7.87;;;;;;;13.84;89.17;100386.16;2059030;86;21054;-73
2022/10/16 07:30:19;;;;;;;8.70;7.37;;;;;;;13.88;89.13;100395.47;2115741;82;20994;-73
2022/10/16 07:33:25;;;;;;;11.63;8.73;;;;;;;13.92;89.02;100398.59;2133058;82;21603;-74
2022/10/16 07:36:26;;;;;;;9.13;7.50;;;;;;;13.98;89.02;100401.04;2138839;82;21015;-74
2022/10/16 07:39:36;;;;;;;8.33;7.20;;;;;;;14.04;88.98;100393.64;2142688;82;21030;-75
2022/10/16 07:42:35;;;;;;;10.35;8.83;;;;;;;14.14;89.00;100403.55;2114504;82;21113;-73
2022/10/16 07:45:46;;;;;;;10.58;7.67;;;;;;;14.23;88.78;100399.77;2140954;82;21018;-75
2022/10/16 07:49:04;;;;;;;10.95;6.83;;;;;;;14.32;88.55;100394.66;2141759;82;21519;-77
2022/10/16 07:52:16;;;;;;;7.45;6.72;;;;;;;14.39;88.34;100389.91;2133043;82;21023;-75
2022/10/16 07:55:29;;;;;;;8.23;6.83;;;;;;;14.47;88.44;100390.66;2113659;82;21018;-73
2022/10/16 07:58:48;;;;;;;10.05;7.12;;;;;;;14.56;88.24;100391.42;2115494;83;21007;-73
2022/10/16 08:01:51;;;;;;;9.63;7.55;;;;;;;14.66;87.95;100395.95;2123746;83;20990;-76
2022/10/16 08:04:54;;;;;;;11.93;7.75;;;;;;;14.71;87.55;100390.88;2088642;83;21105;-77
2022/10/16 08:07:56;;;;;;;13.28;8.73;;;;;;;14.72;87.30;100396.53;2076700;84;21011;-80
2022/10/16 08:10:57;;;;;;;9.10;7.20;;;;;;;14.73;86.89;100397.38;2050026;84;21091;-78
2022/10/16 08:13:58;;;;;;;9.30;6.58;;;;;;;14.74;86.66;100395.02;2074866;84;21030;-87
2022/10/16 08:17:01;;;;;;;7.78;6.58;;;;;;;14.80;86.93;100395.09;2075084;84;21468;-78
2022/10/16 08:20:05;;;;;;;11.70;6.72;;;;;;;14.89;86.24;100396.31;2068305;84;21575;-79
2022/10/16 08:23:17;;;;;;;6.85;6.05;;;;;;;15.01;86.77;100396.17;2055711;84;20999;-80
2022/10/16 08:26:13;;;;;;;8.28;6.12;;;;;;;15.12;86.15;100397.00;2078233;84;21473;-72
2022/10/16 08:33:36;;;;;;;6.15;5.42;;;;;;;15.36;86.00;100409.67;2075618;84;21589;-83
2022/10/16 08:36:38;;;;;;;7.72;4.85;;;;;;;15.53;85.28;100410.24;2114015;82;21108;-88
2022/10/16 08:39:39;;;;;;;6.37;4.95;;;;;;;15.67;85.32;100422.20;2119313;82;21039;-88
2022/10/16 08:43:27;;;;;;;5.72;5.15;;;;;;;15.79;85.18;100421.19;2119022;82;21052;-83
2022/10/16 08:47:00;;;;;;;5.70;5.20;;;;;;;15.91;84.68;100425.01;2113363;82;21077;-87
2022/10/16 08:50:13;;;;;;;6.60;4.87;;;;;;;16.06;84.42;100422.23;2095395;82;21040;-85
2022/10/16 08:53:35;;;;;;;5.70;4.62;;;;;;;16.15;83.72;100424.24;2117527;82;21026;-86
2022/10/16 08:56:36;;;;;;;5.75;5.15;;;;;;;16.24;83.58;100421.72;2115887;82;21059;-88
2022/10/16 08:59:39;;;;;;;6.05;5.12;;;;;;;16.34;82.90;100426.73;2115846;82;21100;-86
2022/10/16 09:03:05;;;;;;;6.83;4.80;;;;;;;16.43;82.40;100426.06;2127985;82;21553;-79
2022/10/16 09:06:51;;;;;;;5.62;5.03;;;;;;;16.55;82.35;100423.95;2091144;84;21052;-89
2022/10/16 09:10:34;;;;;;;6.12;4.37;;;;;;;16.80;82.55;100430.19;2067225;84;21554;-92
2022/10/16 09:14:05;;;;;;;7.03;5.22;;;;;;;16.99;81.22;100429.44;2100326;84;21493;-85
2022/10/16 09:17:55;;;;;;;7.92;4.37;;;;;;;17.09;81.11;100436.27;2093539;84;21095;-84
2022/10/16 09:21:14;;;;;;;5.17;4.50;;;;;;;17.19;80.94;100438.06;2101052;83;21065;-90
2022/10/16 09:27:39;;;;;;;5.72;5.05;;;;;;;17.28;79.32;100444.88;2085674;84;21009;-82
2022/10/16 09:30:38;;;;;;;5.83;5.17;;;;;;;17.29;80.03;100447.05;2097569;84;21646;-89
2022/10/16 09:33:43;;;;;;;5.87;5.28;;;;;;;17.30;78.53;100446.03;2096661;84;21517;-84
2022/10/16 09:36:57;;;;;;;6.08;5.00;;;;;;;17.34;79.71;100444.58;2096619;84;21071;-86
2022/10/16 09:39:59;;;;;;;6.40;4.92;;;;;;;17.44;78.62;100444.51;2101027;84;20998;-79
2022/10/16 09:43:22;;;;;;;6.65;5.25;;;;;;;17.57;79.19;100445.55;2089234;84;21149;-88
2022/10/16 09:46:48;;;;;;;;;;;;;;;;;;;;;
2022/10/16 09:49:57;;;;;;;5.90;4.87;;;;;;;17.86;78.41;100443.86;2109723;84;20998;-70
2022/10/16 09:53:18;;;;;;;5.90;5.23;;;;;;;18.07;78.80;100439.30;2109020;84;21021;-72
2022/10/16 09:56:33;;;;;;;7.72;6.05;;;;;;;18.35;78.47;100442.55;2097975;84;21729;-73
2022/10/16 09:59:46;;;;;;;8.28;5.67;;;;;;;18.52;77.53;100438.90;2110216;84;21073;-79
2022/10/16 10:02:48;;;;;;;11.70;5.92;;;;;;;18.59;76.46;100431.66;2106936;84;21111;-72
2022/10/16 10:05:50;;;;;;;8.23;5.47;;;;;;;18.62;76.25;100438.47;2095566;82;20992;-71
2022/10/16 10:09:04;;;;;;;10.38;6.28;;;;;;;18.72;76.52;100444.73;2126936;82;21503;-78
2022/10/16 10:12:24;;;;;;;6.78;5.25;;;;;;;18.88;76.10;100439.44;2109286;82;21560;-72
2022/10/16 10:15:28;;;;;;;7.20;5.25;;;;;;;19.06;75.98;100440.89;2129612;82;21614;-71
2022/10/16 10:18:31;;;;;;;7.22;5.25;;;;;;;19.04;75.07;100448.37;2122566;82;21041;-74
2022/10/16 10:21:34;;;;;;;6.55;5.50;;;;;;;19.02;75.02;100447.75;2120404;82;21051;-72
2022/10/16 10:24:35;;;;;;;11.05;5.78;;;;;;;19.02;75.13;100439.68;2126795;82;21426;-72
2022/10/16 10:27:57;;;;;;;7.78;5.62;;;;;;;19.00;74.73;100439.06;2102318;82;21785;-72
2022/10/16 10:31:29;;;;;;;7.22;6.15;;;;;;;19.15;74.96;100440.15;2115595;82;21506;-72
2022/10/16 10:34:59;;;;;;;8.48;5.65;;;;;;;19.38;74.24;100439.59;2117917;82;21022;-75
2022/10/16 10:38:45;;;;;;;8.65;4.92;;;;;;;19.81;74.75;100441.06;2119451;82;21697;-72
2022/10/16 10:42:07;;;;;;;6.70;5.35;;;;;;;20.15;73.79;100432.98;2123646;82;21082;-71
2022/10/16 10:45:39;;;;;;;5.65;4.87;;;;;;;20.50;71.97;100436.48;2107868;82;22356;-73
2022/10/16 10:48:55;;;;;;;5.33;4.83;;;;;;;20.77;71.96;100441.58;2117886;82;21535;-72
2022/10/16 10:52:33;;;;;;;5.35;4.85;;;;;;;21.10;71.57;100441.70;2119666;82;21108;-73
2022/10/16 10:55:53;;;;;;;4.40;3.83;;;;;;;21.28;70.57;100447.03;2127567;82;21504;-73
2022/10/16 10:59:09;;;;;;;5.10;4.00;;;;;;;21.45;69.21;100438.60;2117462;82;21106;-72
2022/10/16 11:02:43;;;;;;;5.10;4.60;;;;;;;21.59;68.81;100439.77;2116373;82;21512;-74
2022/10/16 11:06:12;;;;;;;4.72;4.33;;;;;;;21.73;68.41;100438.49;2084805;82;21084;-71
2022/10/16 11:09:33;;;;;;;4.17;3.77;;;;;;;22.03;66.53;100420.85;2120228;82;21143;-71
2022/10/16 11:12:47;;;;;;;4.00;3.60;;;;;;;22.08;65.32;100429.61;2115989;82;22090;-73
2022/10/16 11:15:51;;;;;;;5.55;3.92;;;;;;;22.24;65.75;100438.38;2087723;82;20984;-78
2022/10/16 11:19:32;;;;;;;3.33;3.02;;;;;;;22.48;66.36;100437.02;2127164;82;21045;-74
2022/10/16 11:23:00;;;;;;;4.72;3.12;;;;;;;22.80;65.76;100443.63;2129106;82;21059;-75
2022/10/16 11:26:06;;;;;;;5.10;4.25;;;;;;;22.79;65.27;100435.23;2136082;82;20995;-74
2022/10/16 11:29:16;;;;;;;4.47;3.60;;;;;;;22.79;64.05;100424.41;2135383;82;21065;-73
2022/10/16 11:32:26;;;;;;;3.45;3.05;;;;;;;22.48;63.18;100418.91;2128290;82;21514;-73
2022/10/16 11:35:57;;;;;;;7.25;3.00;;;;;;;22.11;62.37;100423.73;2128952;82;21572;-75
2022/10/16 11:39:09;;;;;;;5.87;3.30;;;;;;;22.03;62.85;100415.45;2127962;82;21035;-77
2022/10/16 11:42:25;;;;;;;5.90;4.03;;;;;;;22.19;62.81;100403.65;2128545;82;21064;-81
2022/10/16 11:45:43;;;;;;;3.85;3.00;;;;;;;22.13;61.34;100409.44;2132430;82;21596;-76
2022/10/16 11:48:58;;;;;;;8.70;4.22;;;;;;;21.89;62.41;100402.70;2125339;82;21077;-76
2022/10/16 11:52:23;;;;;;;8.78;4.62;;;;;;;21.92;62.76;100402.23;2096975;82;21020;-80
2022/10/16 11:55:31;;;;;;;4.33;3.20;;;;;;;21.78;62.64;100402.70;2129943;82;21011;-74
2022/10/16 11:58:53;;;;;;;3.40;3.10;;;;;;;21.78;62.40;100415.67;2135218;82;21165;-74
2022/10/16 12:02:28;;;;;;;4.22;3.83;;;;;;;21.85;61.72;100415.55;2137136;82;21091;-69
2022/10/16 12:05:35;;;;;;;3.60;3.30;;;;;;;21.96;62.13;100413.91;2131464;82;21070;-78
2022/10/16 12:08:37;;;;;;;3.40;3.10;;;;;;;22.04;62.01;100423.02;2123007;82;21048;-76
2022/10/16 12:11:39;;;;;;;5.00;3.10;;;;;;;21.90;61.47;100425.12;2133225;82;21041;-74
2022/10/16 12:14:40;;;;;;;4.33;3.22;;;;;;;21.73;62.03;100421.47;2128633;82;21012;-75
2022/10/16 12:17:41;;;;;;;10.38;4.05;;;;;;;21.62;61.99;100429.84;2133227;82;21492;-71
2022/10/16 12:20:45;;;;;;;5.45;4.50;;;;;;;21.41;62.30;100432.56;2128148;82;21334;-72
2022/10/16 12:23:58;;;;;;;6.35;5.08;;;;;;;21.16;62.55;100436.73;2129745;82;21053;-73
2022/10/16 12:27:03;;;;;;;8.18;4.62;;;;;;;20.88;62.42;100439.47;2130045;82;21481;-73
2022/10/16 12:30:07;;;;;;;7.35;5.40;;;;;;;20.66;63.34;100436.94;2110887;82;20959;-72
2022/10/16 12:33:32;;;;;;;6.10;5.50;;;;;;;20.48;63.68;100443.95;2127296;82;21068;-76
2022/10/16 12:36:35;;;;;;;7.75;5.47;;;;;;;20.33;63.82;100447.55;2130438;82;21064;-74
2022/10/16 12:39:37;;;;;;;5.45;4.95;;;;;;;20.22;64.27;100453.67;2128039;82;21045;-72
2022/10/16 12:42:39;;;;;;;6.55;5.62;;;;;;;20.13;64.71;100459.34;2132953;82;21086;-72
2022/10/16 12:45:41;;;;;;;7.12;5.50;;;;;;;20.08;65.16;100463.22;2132982;82;21034;-74
2022/10/16 12:48:45;;;;;;;7.15;5.42;;;;;;;20.06;65.30;100468.52;2125623;82;21544;-72
2022/10/16 12:51:47;;;;;;;7.62;5.92;;;;;;;19.99;65.47;100482.05;2130127;82;21357;-74
2022/10/16 12:54:48;;;;;;;6.10;5.50;;;;;;;19.93;65.75;100483.75;2131979;82;21473;-73
2022/10/16 12:58:30;;;;;;;6.53;5.45;;;;;;;19.87;65.82;100498.06;2127325;82;21069;-72
2022/10/16 13:02:15;;;;;;;7.30;6.03;;;;;;;19.74;65.66;100483.88;2128687;82;21576;-72
2022/10/16 13:05:40;;;;;;;7.65;6.75;;;;;;;19.56;65.82;100494.84;2127888;82;21067;-70
2022/10/16 13:09:04;;;;;;;11.40;8.15;;;;;;;19.43;66.25;100485.52;2135395;82;21055;-73
2022/10/16 13:12:29;;;;;;;9.08;7.45;;;;;;;19.42;66.58;100483.84;2108930;82;22711;-71
2022/10/16 13:15:36;;;;;;;7.35;6.62;;;;;;;19.41;66.90;100484.91;2126857;82;20967;-74
2022/10/16 13:18:55;;;;;;;11.10;7.00;;;;;;;19.46;66.96;100497.20;2132432;82;21430;-71
2022/10/16 13:22:34;;;;;;;7.97;7.17;;;;;;;19.49;66.98;100496.76;2129897;82;21036;-70
2022/10/16 13:25:53;;;;;;;7.40;6.70;;;;;;;19.48;67.08;100491.90;2138173;82;21097;-70
2022/10/16 13:29:01;;;;;;;9.05;7.78;;;;;;;19.49;67.12;100494.89;2134017;82;21033;-76
2022/10/16 13:32:12;;;;;;;14.85;6.97;;;;;;;19.48;67.31;100504.02;2132394;82;21041;-72
2022/10/16 13:35:30;;;;;;;8.03;7.22;;;;;;;19.49;67.40;100501.61;2128516;82;21066;-72
2022/10/16 13:38:35;;;;;;;8.43;7.53;;;;;;;19.48;67.47;100497.78;2133453;82;21338;-74
2022/10/16 13:41:36;;;;;;;8.58;7.40;;;;;;;19.46;67.48;100499.88;2136025;82;20986;-73
2022/10/16 13:44:48;;;;;;;9.68;7.20;;;;;;;19.45;67.54;100507.63;2133862;82;21086;-69
2022/10/16 13:47:50;;;;;;;8.05;7.22;;;;;;;19.46;67.59;100507.95;2139122;82;21069;-73
2022/10/16 13:51:14;;;;;;;10.43;7.80;;;;;;;19.45;67.74;100511.67;2106891;82;21019;-75
2022/10/16 13:54:19;;;;;;;14.20;8.30;;;;;;;19.43;67.82;100512.42;2128025;82;21659;-70
2022/10/16 13:57:25;;;;;;;8.55;7.75;;;;;;;19.42;67.69;100505.37;2128715;82;21543;-72
2022/10/16 14:00:32;;;;;;;8.85;7.47;;;;;;;19.39;67.79;100513.88;2094644;82;21006;-72
2022/10/16 14:03:35;;;;;;;9.75;7.78;;;;;;;19.36;68.04;100510.28;2127565;82;21564;-72
2022/10/16 14:06:44;;;;;;;9.50;8.03;;;;;;;19.36;68.10;100511.63;2115782;82;21061;-71
2022/10/16 14:09:49;;;;;;;10.75;8.30;;;;;;;19.36;68.20;100516.48;2108346;84;21025;-72
2022/10/16 14:13:07;;;;;;;9.35;8.10;;;;;;;19.36;68.32;100516.48;2109719;84;21021;-73
2022/10/16 14:16:13;;;;;;;10.72;7.97;;;;;;;19.36;68.31;100522.38;2055965;84;21216;-73
2022/10/16 14:19:28;;;;;;;8.95;7.15;;;;;;;19.35;68.47;100525.60;2076519;84;20998;-73
2022/10/16 14:22:41;;;;;;;8.85;7.58;;;;;;;19.38;68.56;100535.93;2101325;84;21074;-75
2022/10/16 14:25:43;;;;;;;11.78;7.55;;;;;;;19.42;68.59;100531.75;2094420;84;21041;-72
2022/10/16 14:28:47;;;;;;;9.18;7.15;;;;;;;19.49;68.69;100536.59;2103734;84;21041;-71
2022/10/16 14:32:02;;;;;;;11.53;6.85;;;;;;;19.56;68.68;100537.08;2079580;82;21057;-69
2022/10/16 14:35:04;;;;;;;7.55;6.65;;;;;;;19.58;68.58;100541.73;2105065;84;21559;-71
2022/10/16 14:38:08;;;;;;;7.87;6.20;;;;;;;19.58;68.54;100545.77;2106097;84;21037;-71
2022/10/16 14:41:10;;;;;;;8.20;6.08;;;;;;;19.58;68.56;100545.24;2108185;84;21085;-71
2022/10/16 14:44:13;;;;;;;6.70;6.00;;;;;;;19.58;68.41;100541.73;2104912;84;21057;-71
2022/10/16 14:47:22;;;;;;;9.15;6.87;;;;;;;19.56;68.37;100545.16;2110382;84;21009;-71
2022/10/16 14:50:21;;;;;;;7.05;5.83;;;;;;;19.53;68.42;100539.67;2104688;84;21010;-71
2022/10/16 14:53:25;;;;;;;8.35;6.08;;;;;;;19.48;68.39;100544.88;2106006;84;21148;-71
2022/10/16 14:56:34;;;;;;;9.30;6.65;;;;;;;19.43;68.48;100544.19;2108689;84;21084;-70
2022/10/16 14:59:41;;;;;;;15.25;7.70;;;;;;;19.40;68.52;100542.42;2107074;84;21026;-71
2022/10/16 15:02:43;;;;;;;8.00;7.17;;;;;;;19.35;68.67;100558.41;2106019;84;22200;-70
2022/10/16 15:05:44;;;;;;;8.35;6.60;;;;;;;19.28;68.78;100557.08;2111914;82;21062;-70
2022/10/16 15:08:45;;;;;;;10.18;7.05;;;;;;;19.24;68.83;100554.52;2133462;82;21064;-71
2022/10/16 15:11:47;;;;;;;7.87;6.25;;;;;;;19.17;68.96;100555.87;2138135;82;21543;-70
2022/10/16 15:14:48;;;;;;;7.72;6.65;;;;;;;19.10;69.04;100557.77;2134887;82;21042;-71